sensor_id;sensor_type;location;lat;lon;timestamp;P1;durP1;ratioP1;P2;durP2;ratioP2
40591;SDS011;26301;42.832;23.918;2022-12-07T00:00:55;13.50;;;6.87;;
40591;SDS011;26301;42.832;23.918;2022-12-07T00:03:28;13.07;;;7.80;;
40591;SDS011;26301;42.832;23.918;2022-12-07T00:05:57;11.73;;;7.63;;
40591;SDS011;26301;42.832;23.918;2022-12-07T00:08:22;12.43;;;6.77;;
40591;SDS011;26301;42.832;23.918;2022-12-07T00:10:48;13.33;;;6.70;;
40591;SDS011;26301;42.832;23.918;2022-12-07T00:13:13;12.73;;;7.00;;
40591;SDS011;26301;42.832;23.918;2022-12-07T00:15:39;14.97;;;6.80;;
40591;SDS011;26301;42.832;23.918;2022-12-07T00:18:05;13.40;;;6.90;;
40591;SDS011;26301;42.832;23.918;2022-12-07T00:20:31;11.97;;;6.57;;
40591;SDS011;26301;42.832;23.918;2022-12-07T00:22:56;15.60;;;8.23;;
40591;SDS011;26301;42.832;23.918;2022-12-07T00:25:22;13.53;;;8.33;;
40591;SDS011;26301;42.832;23.918;2022-12-07T00:27:48;13.93;;;8.10;;
40591;SDS011;26301;42.832;23.918;2022-12-07T00:30:13;16.30;;;8.73;;
40591;SDS011;26301;42.832;23.918;2022-12-07T00:32:39;14.23;;;8.20;;
40591;SDS011;26301;42.832;23.918;2022-12-07T00:35:05;15.60;;;9.03;;
40591;SDS011;26301;42.832;23.918;2022-12-07T00:37:31;17.07;;;8.50;;
40591;SDS011;26301;42.832;23.918;2022-12-07T00:39:57;18.60;;;9.00;;
40591;SDS011;26301;42.832;23.918;2022-12-07T00:42:22;18.27;;;8.90;;
40591;SDS011;26301;42.832;23.918;2022-12-07T00:44:48;13.97;;;8.17;;
40591;SDS011;26301;42.832;23.918;2022-12-07T00:47:14;13.83;;;7.87;;
40591;SDS011;26301;42.832;23.918;2022-12-07T00:49:39;15.23;;;8.37;;
40591;SDS011;26301;42.832;23.918;2022-12-07T00:52:04;15.20;;;8.87;;
40591;SDS011;26301;42.832;23.918;2022-12-07T00:54:30;15.53;;;8.57;;
40591;SDS011;26301;42.832;23.918;2022-12-07T00:56:56;13.00;;;8.47;;
40591;SDS011;26301;42.832;23.918;2022-12-07T00:59:21;27.23;;;12.00;;
40591;SDS011;26301;42.832;23.918;2022-12-07T01:01:47;29.00;;;15.67;;
40591;SDS011;26301;42.832;23.918;2022-12-07T01:04:12;27.20;;;13.93;;
40591;SDS011;26301;42.832;23.918;2022-12-07T01:06:38;23.73;;;13.90;;
40591;SDS011;26301;42.832;23.918;2022-12-07T01:09:04;41.83;;;19.87;;
40591;SDS011;26301;42.832;23.918;2022-12-07T01:11:31;28.97;;;14.53;;
40591;SDS011;26301;42.832;23.918;2022-12-07T01:13:57;31.53;;;15.33;;
40591;SDS011;26301;42.832;23.918;2022-12-07T01:16:25;22.47;;;12.97;;
40591;SDS011;26301;42.832;23.918;2022-12-07T01:18:52;20.63;;;12.20;;
40591;SDS011;26301;42.832;23.918;2022-12-07T01:21:20;25.83;;;14.37;;
40591;SDS011;26301;42.832;23.918;2022-12-07T01:23:51;31.77;;;12.13;;
40591;SDS011;26301;42.832;23.918;2022-12-07T01:26:18;22.00;;;13.43;;
40591;SDS011;26301;42.832;23.918;2022-12-07T01:28:46;23.77;;;12.60;;
40591;SDS011;26301;42.832;23.918;2022-12-07T01:31:15;22.43;;;12.93;;
40591;SDS011;26301;42.832;23.918;2022-12-07T01:33:44;22.40;;;12.07;;
40591;SDS011;26301;42.832;23.918;2022-12-07T01:38:39;22.33;;;11.40;;
40591;SDS011;26301;42.832;23.918;2022-12-07T01:41:05;28.77;;;17.70;;
40591;SDS011;26301;42.832;23.918;2022-12-07T01:43:32;29.70;;;15.93;;
40591;SDS011;26301;42.832;23.918;2022-12-07T01:45:58;21.33;;;11.83;;
40591;SDS011;26301;42.832;23.918;2022-12-07T01:48:35;21.07;;;11.97;;
40591;SDS011;26301;42.832;23.918;2022-12-07T01:51:11;15.67;;;9.70;;
40591;SDS011;26301;42.832;23.918;2022-12-07T01:53:39;15.63;;;9.68;;
40591;SDS011;26301;42.832;23.918;2022-12-07T01:56:09;18.03;;;9.27;;
40591;SDS011;26301;42.832;23.918;2022-12-07T01:58:40;15.63;;;9.57;;
40591;SDS011;26301;42.832;23.918;2022-12-07T02:01:06;23.20;;;11.10;;
40591;SDS011;26301;42.832;23.918;2022-12-07T02:03:33;18.10;;;9.40;;
40591;SDS011;26301;42.832;23.918;2022-12-07T02:06:03;17.60;;;8.70;;
40591;SDS011;26301;42.832;23.918;2022-12-07T02:08:30;18.00;;;8.63;;
40591;SDS011;26301;42.832;23.918;2022-12-07T02:10:56;17.33;;;8.43;;
40591;SDS011;26301;42.832;23.918;2022-12-07T02:13:25;16.20;;;8.07;;
40591;SDS011;26301;42.832;23.918;2022-12-07T02:21:59;18.23;;;10.63;;
40591;SDS011;26301;42.832;23.918;2022-12-07T02:30:03;16.30;;;8.27;;
40591;SDS011;26301;42.832;23.918;2022-12-07T02:32:39;14.50;;;8.07;;
40591;SDS011;26301;42.832;23.918;2022-12-07T02:38:08;14.93;;;9.07;;
40591;SDS011;26301;42.832;23.918;2022-12-07T02:43:53;20.90;;;11.23;;
40591;SDS011;26301;42.832;23.918;2022-12-07T02:46:22;14.00;;;8.47;;
40591;SDS011;26301;42.832;23.918;2022-12-07T02:48:51;17.00;;;10.27;;
40591;SDS011;26301;42.832;23.918;2022-12-07T02:51:19;19.03;;;10.30;;
40591;SDS011;26301;42.832;23.918;2022-12-07T02:53:46;18.70;;;10.00;;
40591;SDS011;26301;42.832;23.918;2022-12-07T03:12:44;17.57;;;8.47;;
40591;SDS011;26301;42.832;23.918;2022-12-07T03:15:33;15.53;;;8.07;;
40591;SDS011;26301;42.832;23.918;2022-12-07T03:18:06;16.20;;;10.33;;
40591;SDS011;26301;42.832;23.918;2022-12-07T03:20:34;13.63;;;9.37;;
40591;SDS011;26301;42.832;23.918;2022-12-07T03:23:03;14.73;;;7.73;;
40591;SDS011;26301;42.832;23.918;2022-12-07T03:25:31;14.40;;;8.67;;
40591;SDS011;26301;42.832;23.918;2022-12-07T03:28:02;18.83;;;10.57;;
40591;SDS011;26301;42.832;23.918;2022-12-07T03:30:35;16.10;;;7.67;;
40591;SDS011;26301;42.832;23.918;2022-12-07T03:33:18;13.50;;;7.85;;
40591;SDS011;26301;42.832;23.918;2022-12-07T03:35:52;18.90;;;8.83;;
40591;SDS011;26301;42.832;23.918;2022-12-07T03:38:30;11.40;;;7.00;;
40591;SDS011;26301;42.832;23.918;2022-12-07T03:41:03;16.90;;;6.83;;
40591;SDS011;26301;42.832;23.918;2022-12-07T03:43:37;15.10;;;7.90;;
40591;SDS011;26301;42.832;23.918;2022-12-07T03:46:13;16.63;;;8.53;;
40591;SDS011;26301;42.832;23.918;2022-12-07T03:51:14;14.77;;;7.90;;
40591;SDS011;26301;42.832;23.918;2022-12-07T03:53:50;11.20;;;6.27;;
40591;SDS011;26301;42.832;23.918;2022-12-07T03:56:25;13.60;;;7.13;;
40591;SDS011;26301;42.832;23.918;2022-12-07T03:58:53;13.73;;;8.53;;
40591;SDS011;26301;42.832;23.918;2022-12-07T04:01:19;13.83;;;6.97;;
40591;SDS011;26301;42.832;23.918;2022-12-07T04:03:45;15.90;;;6.50;;
40591;SDS011;26301;42.832;23.918;2022-12-07T04:06:10;10.50;;;6.10;;
40591;SDS011;26301;42.832;23.918;2022-12-07T04:08:36;13.57;;;6.80;;
40591;SDS011;26301;42.832;23.918;2022-12-07T04:11:02;10.30;;;6.40;;
40591;SDS011;26301;42.832;23.918;2022-12-07T04:13:28;14.53;;;7.73;;
40591;SDS011;26301;42.832;23.918;2022-12-07T04:15:53;18.40;;;8.90;;
40591;SDS011;26301;42.832;23.918;2022-12-07T04:18:19;14.07;;;7.53;;
40591;SDS011;26301;42.832;23.918;2022-12-07T04:20:45;10.17;;;6.50;;
40591;SDS011;26301;42.832;23.918;2022-12-07T04:23:11;11.53;;;6.77;;
40591;SDS011;26301;42.832;23.918;2022-12-07T04:25:37;10.57;;;6.30;;
40591;SDS011;26301;42.832;23.918;2022-12-07T04:28:02;10.60;;;7.20;;
40591;SDS011;26301;42.832;23.918;2022-12-07T04:30:28;11.47;;;6.47;;
40591;SDS011;26301;42.832;23.918;2022-12-07T04:32:53;11.83;;;6.33;;
40591;SDS011;26301;42.832;23.918;2022-12-07T04:35:20;10.67;;;6.40;;
40591;SDS011;26301;42.832;23.918;2022-12-07T04:37:45;17.07;;;10.17;;
40591;SDS011;26301;42.832;23.918;2022-12-07T04:40:11;14.43;;;7.40;;
40591;SDS011;26301;42.832;23.918;2022-12-07T04:42:39;17.03;;;8.00;;
40591;SDS011;26301;42.832;23.918;2022-12-07T04:45:05;12.60;;;6.57;;
40591;SDS011;26301;42.832;23.918;2022-12-07T04:47:31;11.60;;;6.00;;
40591;SDS011;26301;42.832;23.918;2022-12-07T04:49:57;10.93;;;6.33;;
40591;SDS011;26301;42.832;23.918;2022-12-07T04:52:23;15.37;;;8.30;;
40591;SDS011;26301;42.832;23.918;2022-12-07T04:54:48;17.00;;;7.77;;
40591;SDS011;26301;42.832;23.918;2022-12-07T04:57:14;14.37;;;8.73;;
40591;SDS011;26301;42.832;23.918;2022-12-07T04:59:40;12.40;;;7.07;;
40591;SDS011;26301;42.832;23.918;2022-12-07T05:02:06;10.67;;;6.13;;
40591;SDS011;26301;42.832;23.918;2022-12-07T05:04:31;16.13;;;6.23;;
40591;SDS011;26301;42.832;23.918;2022-12-07T05:06:57;10.93;;;5.93;;
40591;SDS011;26301;42.832;23.918;2022-12-07T05:09:23;8.57;;;5.63;;
40591;SDS011;26301;42.832;23.918;2022-12-07T05:11:49;10.57;;;6.13;;
40591;SDS011;26301;42.832;23.918;2022-12-07T05:14:15;13.00;;;7.30;;
40591;SDS011;26301;42.832;23.918;2022-12-07T05:16:44;15.70;;;8.30;;
40591;SDS011;26301;42.832;23.918;2022-12-07T05:19:11;11.00;;;6.37;;
40591;SDS011;26301;42.832;23.918;2022-12-07T05:21:37;15.30;;;8.20;;
40591;SDS011;26301;42.832;23.918;2022-12-07T05:24:03;12.87;;;7.20;;
40591;SDS011;26301;42.832;23.918;2022-12-07T05:26:29;12.43;;;6.97;;
40591;SDS011;26301;42.832;23.918;2022-12-07T05:28:55;13.43;;;6.60;;
40591;SDS011;26301;42.832;23.918;2022-12-07T05:31:22;16.10;;;9.83;;
40591;SDS011;26301;42.832;23.918;2022-12-07T05:33:48;15.77;;;8.67;;
40591;SDS011;26301;42.832;23.918;2022-12-07T05:36:14;13.07;;;6.80;;
40591;SDS011;26301;42.832;23.918;2022-12-07T05:38:40;16.63;;;7.63;;
40591;SDS011;26301;42.832;23.918;2022-12-07T05:41:06;12.93;;;8.00;;
40591;SDS011;26301;42.832;23.918;2022-12-07T05:43:32;13.20;;;7.23;;
40591;SDS011;26301;42.832;23.918;2022-12-07T05:45:58;12.57;;;7.47;;
40591;SDS011;26301;42.832;23.918;2022-12-07T05:48:24;13.07;;;7.53;;
40591;SDS011;26301;42.832;23.918;2022-12-07T05:50:51;14.23;;;6.50;;
40591;SDS011;26301;42.832;23.918;2022-12-07T05:53:17;11.90;;;6.53;;
40591;SDS011;26301;42.832;23.918;2022-12-07T05:55:43;16.33;;;9.63;;
40591;SDS011;26301;42.832;23.918;2022-12-07T05:58:09;22.47;;;11.97;;
40591;SDS011;26301;42.832;23.918;2022-12-07T06:00:54;24.00;;;11.27;;
40591;SDS011;26301;42.832;23.918;2022-12-07T06:03:20;19.77;;;9.93;;
40591;SDS011;26301;42.832;23.918;2022-12-07T06:05:46;15.43;;;9.70;;
40591;SDS011;26301;42.832;23.918;2022-12-07T06:08:12;14.57;;;8.20;;
40591;SDS011;26301;42.832;23.918;2022-12-07T06:10:39;17.10;;;9.90;;
40591;SDS011;26301;42.832;23.918;2022-12-07T06:13:05;18.00;;;8.60;;
40591;SDS011;26301;42.832;23.918;2022-12-07T06:15:31;14.27;;;8.53;;
40591;SDS011;26301;42.832;23.918;2022-12-07T06:17:56;15.10;;;7.83;;
40591;SDS011;26301;42.832;23.918;2022-12-07T06:20:22;12.40;;;7.80;;
40591;SDS011;26301;42.832;23.918;2022-12-07T06:22:48;11.23;;;7.77;;
40591;SDS011;26301;42.832;23.918;2022-12-07T06:25:14;12.63;;;7.20;;
40591;SDS011;26301;42.832;23.918;2022-12-07T06:27:39;10.67;;;6.20;;
40591;SDS011;26301;42.832;23.918;2022-12-07T06:30:05;11.13;;;6.87;;
40591;SDS011;26301;42.832;23.918;2022-12-07T06:32:35;14.90;;;7.03;;
40591;SDS011;26301;42.832;23.918;2022-12-07T06:35:03;19.23;;;8.90;;
40591;SDS011;26301;42.832;23.918;2022-12-07T06:37:29;22.90;;;10.97;;
40591;SDS011;26301;42.832;23.918;2022-12-07T06:39:55;13.80;;;8.37;;
40591;SDS011;26301;42.832;23.918;2022-12-07T06:42:21;13.10;;;8.37;;
40591;SDS011;26301;42.832;23.918;2022-12-07T06:44:46;17.03;;;8.57;;
40591;SDS011;26301;42.832;23.918;2022-12-07T06:47:12;11.13;;;6.60;;
40591;SDS011;26301;42.832;23.918;2022-12-07T06:49:38;14.37;;;6.00;;
40591;SDS011;26301;42.832;23.918;2022-12-07T06:52:03;10.43;;;6.17;;
40591;SDS011;26301;42.832;23.918;2022-12-07T06:54:30;9.43;;;6.40;;
40591;SDS011;26301;42.832;23.918;2022-12-07T06:56:56;15.70;;;7.90;;
40591;SDS011;26301;42.832;23.918;2022-12-07T06:59:22;16.37;;;10.17;;
40591;SDS011;26301;42.832;23.918;2022-12-07T07:01:47;22.13;;;15.20;;
40591;SDS011;26301;42.832;23.918;2022-12-07T07:04:13;28.83;;;21.63;;
40591;SDS011;26301;42.832;23.918;2022-12-07T07:06:38;34.40;;;22.83;;
40591;SDS011;26301;42.832;23.918;2022-12-07T07:09:04;47.43;;;27.10;;
40591;SDS011;26301;42.832;23.918;2022-12-07T07:11:30;43.57;;;23.73;;
40591;SDS011;26301;42.832;23.918;2022-12-07T07:13:55;36.47;;;19.20;;
40591;SDS011;26301;42.832;23.918;2022-12-07T07:16:23;38.90;;;22.80;;
40591;SDS011;26301;42.832;23.918;2022-12-07T07:18:49;27.50;;;15.77;;
40591;SDS011;26301;42.832;23.918;2022-12-07T07:21:15;20.63;;;11.73;;
40591;SDS011;26301;42.832;23.918;2022-12-07T07:23:40;28.58;;;14.30;;
40591;SDS011;26301;42.832;23.918;2022-12-07T07:26:06;32.53;;;15.82;;
40591;SDS011;26301;42.832;23.918;2022-12-07T07:28:31;14.07;;;9.77;;
40591;SDS011;26301;42.832;23.918;2022-12-07T07:30:57;24.42;;;14.23;;
40591;SDS011;26301;42.832;23.918;2022-12-07T07:33:23;20.23;;;11.13;;
40591;SDS011;26301;42.832;23.918;2022-12-07T07:35:48;24.10;;;12.75;;
40591;SDS011;26301;42.832;23.918;2022-12-07T07:38:14;25.95;;;12.30;;
40591;SDS011;26301;42.832;23.918;2022-12-07T07:40:39;18.58;;;10.05;;
40591;SDS011;26301;42.832;23.918;2022-12-07T07:43:05;21.13;;;9.43;;
40591;SDS011;26301;42.832;23.918;2022-12-07T07:45:31;19.90;;;14.45;;
40591;SDS011;26301;42.832;23.918;2022-12-07T07:47:57;23.77;;;14.63;;
40591;SDS011;26301;42.832;23.918;2022-12-07T07:50:22;18.45;;;12.35;;
40591;SDS011;26301;42.832;23.918;2022-12-07T07:52:48;22.25;;;14.40;;
40591;SDS011;26301;42.832;23.918;2022-12-07T07:55:14;17.40;;;12.98;;
40591;SDS011;26301;42.832;23.918;2022-12-07T07:57:40;14.82;;;9.40;;
40591;SDS011;26301;42.832;23.918;2022-12-07T08:00:10;13.45;;;8.27;;
40591;SDS011;26301;42.832;23.918;2022-12-07T08:02:37;13.90;;;7.15;;
40591;SDS011;26301;42.832;23.918;2022-12-07T08:05:03;11.20;;;6.82;;
40591;SDS011;26301;42.832;23.918;2022-12-07T08:07:29;10.73;;;7.57;;
40591;SDS011;26301;42.832;23.918;2022-12-07T08:09:54;11.75;;;6.05;;
40591;SDS011;26301;42.832;23.918;2022-12-07T08:12:20;14.60;;;7.35;;
40591;SDS011;26301;42.832;23.918;2022-12-07T08:14:45;15.82;;;7.72;;
40591;SDS011;26301;42.832;23.918;2022-12-07T08:17:11;13.90;;;8.95;;
40591;SDS011;26301;42.832;23.918;2022-12-07T08:19:37;11.60;;;6.90;;
40591;SDS011;26301;42.832;23.918;2022-12-07T08:22:03;13.85;;;7.60;;
40591;SDS011;26301;42.832;23.918;2022-12-07T08:24:29;13.93;;;9.10;;
40591;SDS011;26301;42.832;23.918;2022-12-07T08:26:54;21.20;;;10.80;;
40591;SDS011;26301;42.832;23.918;2022-12-07T08:29:20;16.23;;;9.60;;
40591;SDS011;26301;42.832;23.918;2022-12-07T08:31:45;16.25;;;8.88;;
40591;SDS011;26301;42.832;23.918;2022-12-07T08:34:11;12.27;;;7.78;;
40591;SDS011;26301;42.832;23.918;2022-12-07T08:36:37;10.35;;;6.82;;
40591;SDS011;26301;42.832;23.918;2022-12-07T08:39:03;12.18;;;7.10;;
40591;SDS011;26301;42.832;23.918;2022-12-07T08:41:29;9.90;;;6.78;;
40591;SDS011;26301;42.832;23.918;2022-12-07T08:43:55;19.42;;;8.25;;
40591;SDS011;26301;42.832;23.918;2022-12-07T08:46:25;11.98;;;6.50;;
40591;SDS011;26301;42.832;23.918;2022-12-07T08:48:53;13.25;;;6.00;;
40591;SDS011;26301;42.832;23.918;2022-12-07T08:51:22;11.05;;;6.38;;
40591;SDS011;26301;42.832;23.918;2022-12-07T08:53:49;9.90;;;6.65;;
40591;SDS011;26301;42.832;23.918;2022-12-07T08:56:19;9.77;;;5.38;;
40591;SDS011;26301;42.832;23.918;2022-12-07T08:58:45;10.25;;;6.40;;
40591;SDS011;26301;42.832;23.918;2022-12-07T09:01:11;10.57;;;5.78;;
40591;SDS011;26301;42.832;23.918;2022-12-07T09:03:36;11.65;;;6.30;;
40591;SDS011;26301;42.832;23.918;2022-12-07T09:06:02;9.48;;;5.28;;
40591;SDS011;26301;42.832;23.918;2022-12-07T09:08:30;8.35;;;4.47;;
40591;SDS011;26301;42.832;23.918;2022-12-07T09:10:59;8.55;;;4.38;;
40591;SDS011;26301;42.832;23.918;2022-12-07T09:13:25;7.85;;;5.10;;
40591;SDS011;26301;42.832;23.918;2022-12-07T09:15:51;13.70;;;5.07;;
40591;SDS011;26301;42.832;23.918;2022-12-07T09:18:17;14.63;;;5.55;;
40591;SDS011;26301;42.832;23.918;2022-12-07T09:20:43;8.30;;;4.90;;
40591;SDS011;26301;42.832;23.918;2022-12-07T09:23:08;10.02;;;5.30;;
40591;SDS011;26301;42.832;23.918;2022-12-07T09:25:34;7.60;;;5.20;;
40591;SDS011;26301;42.832;23.918;2022-12-07T09:28:00;10.35;;;5.35;;
40591;SDS011;26301;42.832;23.918;2022-12-07T09:30:26;10.23;;;6.00;;
40591;SDS011;26301;42.832;23.918;2022-12-07T09:32:55;16.50;;;6.32;;
40591;SDS011;26301;42.832;23.918;2022-12-07T09:35:22;13.18;;;7.63;;
40591;SDS011;26301;42.832;23.918;2022-12-07T09:37:48;9.85;;;5.22;;
40591;SDS011;26301;42.832;23.918;2022-12-07T09:40:15;13.85;;;5.53;;
40591;SDS011;26301;42.832;23.918;2022-12-07T09:42:43;10.63;;;6.28;;
40591;SDS011;26301;42.832;23.918;2022-12-07T09:45:19;15.15;;;5.97;;
40591;SDS011;26301;42.832;23.918;2022-12-07T09:47:52;8.43;;;5.47;;
40591;SDS011;26301;42.832;23.918;2022-12-07T09:50:21;14.55;;;6.15;;
40591;SDS011;26301;42.832;23.918;2022-12-07T09:52:51;16.88;;;5.90;;
40591;SDS011;26301;42.832;23.918;2022-12-07T09:55:24;12.38;;;5.60;;
40591;SDS011;26301;42.832;23.918;2022-12-07T09:57:53;9.63;;;4.85;;
40591;SDS011;26301;42.832;23.918;2022-12-07T10:00:20;12.20;;;5.95;;
40591;SDS011;26301;42.832;23.918;2022-12-07T10:02:52;13.10;;;5.70;;
40591;SDS011;26301;42.832;23.918;2022-12-07T10:05:31;9.32;;;5.45;;
40591;SDS011;26301;42.832;23.918;2022-12-07T10:08:00;9.23;;;5.72;;
40591;SDS011;26301;42.832;23.918;2022-12-07T10:10:29;15.77;;;5.72;;
40591;SDS011;26301;42.832;23.918;2022-12-07T10:13:03;12.20;;;5.05;;
40591;SDS011;26301;42.832;23.918;2022-12-07T10:20:59;12.30;;;7.38;;
40591;SDS011;26301;42.832;23.918;2022-12-07T10:23:28;8.57;;;6.50;;
40591;SDS011;26301;42.832;23.918;2022-12-07T10:25:53;8.43;;;5.00;;
40591;SDS011;26301;42.832;23.918;2022-12-07T10:28:21;14.00;;;4.82;;
40591;SDS011;26301;42.832;23.918;2022-12-07T10:30:51;8.50;;;4.43;;
40591;SDS011;26301;42.832;23.918;2022-12-07T10:33:37;8.95;;;4.55;;
40591;SDS011;26301;42.832;23.918;2022-12-07T10:38:47;8.88;;;4.25;;
40591;SDS011;26301;42.832;23.918;2022-12-07T10:41:16;8.07;;;4.00;;
40591;SDS011;26301;42.832;23.918;2022-12-07T10:43:48;9.40;;;4.63;;
40591;SDS011;26301;42.832;23.918;2022-12-07T10:51:52;7.47;;;3.10;;
40591;SDS011;26301;42.832;23.918;2022-12-07T10:57:51;9.35;;;5.60;;
40591;SDS011;26301;42.832;23.918;2022-12-07T11:00:25;10.63;;;4.13;;
40591;SDS011;26301;42.832;23.918;2022-12-07T11:14:39;10.38;;;2.72;;
40591;SDS011;26301;42.832;23.918;2022-12-07T11:17:35;5.90;;;2.40;;
40591;SDS011;26301;42.832;23.918;2022-12-07T11:23:00;9.18;;;3.58;;
40591;SDS011;26301;42.832;23.918;2022-12-07T11:26:14;4.72;;;2.67;;
40591;SDS011;26301;42.832;23.918;2022-12-07T11:34:24;8.73;;;2.78;;
40591;SDS011;26301;42.832;23.918;2022-12-07T11:37:16;10.30;;;3.55;;
40591;SDS011;26301;42.832;23.918;2022-12-07T11:39:51;7.38;;;3.20;;
40591;SDS011;26301;42.832;23.918;2022-12-07T11:42:29;4.40;;;2.95;;
40591;SDS011;26301;42.832;23.918;2022-12-07T11:45:13;7.68;;;2.97;;
40591;SDS011;26301;42.832;23.918;2022-12-07T11:50:39;7.30;;;2.55;;
40591;SDS011;26301;42.832;23.918;2022-12-07T11:53:10;7.32;;;2.97;;
40591;SDS011;26301;42.832;23.918;2022-12-07T11:56:03;7.18;;;2.60;;
40591;SDS011;26301;42.832;23.918;2022-12-07T12:06:35;9.52;;;4.43;;
40591;SDS011;26301;42.832;23.918;2022-12-07T12:11:56;7.65;;;2.97;;
40591;SDS011;26301;42.832;23.918;2022-12-07T12:17:56;6.90;;;3.38;;
40591;SDS011;26301;42.832;23.918;2022-12-07T12:20:29;7.15;;;3.22;;
40591;SDS011;26301;42.832;23.918;2022-12-07T12:23:22;8.38;;;3.72;;
40591;SDS011;26301;42.832;23.918;2022-12-07T12:25:59;10.05;;;3.60;;
40591;SDS011;26301;42.832;23.918;2022-12-07T12:31:11;8.32;;;4.03;;
40591;SDS011;26301;42.832;23.918;2022-12-07T12:33:38;6.10;;;3.78;;
40591;SDS011;26301;42.832;23.918;2022-12-07T12:38:49;9.95;;;3.78;;
40591;SDS011;26301;42.832;23.918;2022-12-07T12:44:01;10.25;;;4.15;;
40591;SDS011;26301;42.832;23.918;2022-12-07T12:51:56;5.97;;;3.63;;
40591;SDS011;26301;42.832;23.918;2022-12-07T12:54:27;8.18;;;3.70;;
40591;SDS011;26301;42.832;23.918;2022-12-07T13:02:15;11.40;;;4.20;;
40591;SDS011;26301;42.832;23.918;2022-12-07T13:04:53;8.95;;;4.10;;
40591;SDS011;26301;42.832;23.918;2022-12-07T13:20:59;8.70;;;4.53;;
40591;SDS011;26301;42.832;23.918;2022-12-07T13:23:29;10.93;;;5.22;;
40591;SDS011;26301;42.832;23.918;2022-12-07T13:26:20;8.90;;;4.60;;
40591;SDS011;26301;42.832;23.918;2022-12-07T13:29:17;8.90;;;4.28;;
40591;SDS011;26301;42.832;23.918;2022-12-07T13:31:52;7.28;;;4.20;;
40591;SDS011;26301;42.832;23.918;2022-12-07T13:34:36;6.90;;;4.18;;
40591;SDS011;26301;42.832;23.918;2022-12-07T13:37:20;7.68;;;4.82;;
40591;SDS011;26301;42.832;23.918;2022-12-07T13:40:01;8.57;;;4.70;;
40591;SDS011;26301;42.832;23.918;2022-12-07T13:42:44;7.97;;;4.80;;
40591;SDS011;26301;42.832;23.918;2022-12-07T13:45:43;7.53;;;4.65;;
40591;SDS011;26301;42.832;23.918;2022-12-07T13:48:15;10.18;;;4.80;;
40591;SDS011;26301;42.832;23.918;2022-12-07T13:50:51;7.25;;;4.70;;
40591;SDS011;26301;42.832;23.918;2022-12-07T13:53:18;10.85;;;4.50;;
40591;SDS011;26301;42.832;23.918;2022-12-07T13:55:44;7.53;;;4.68;;
40591;SDS011;26301;42.832;23.918;2022-12-07T13:58:12;8.48;;;4.70;;
40591;SDS011;26301;42.832;23.918;2022-12-07T14:00:39;10.35;;;4.60;;
40591;SDS011;26301;42.832;23.918;2022-12-07T14:03:28;10.13;;;5.65;;
40591;SDS011;26301;42.832;23.918;2022-12-07T14:06:36;10.35;;;4.75;;
40591;SDS011;26301;42.832;23.918;2022-12-07T14:08:46;8.63;;;5.45;;
40591;SDS011;26301;42.832;23.918;2022-12-07T14:11:17;9.55;;;4.65;;
40591;SDS011;26301;42.832;23.918;2022-12-07T14:16:24;12.77;;;4.97;;
40591;SDS011;26301;42.832;23.918;2022-12-07T14:18:54;9.57;;;5.20;;
40591;SDS011;26301;42.832;23.918;2022-12-07T14:21:23;14.18;;;4.45;;
40591;SDS011;26301;42.832;23.918;2022-12-07T14:26:43;9.90;;;4.03;;
40591;SDS011;26301;42.832;23.918;2022-12-07T14:31:52;13.98;;;5.20;;
40591;SDS011;26301;42.832;23.918;2022-12-07T14:34:20;12.80;;;5.05;;
40591;SDS011;26301;42.832;23.918;2022-12-07T14:36:46;8.70;;;5.65;;
40591;SDS011;26301;42.832;23.918;2022-12-07T14:39:11;10.55;;;4.88;;
40591;SDS011;26301;42.832;23.918;2022-12-07T14:41:37;6.25;;;4.25;;
40591;SDS011;26301;42.832;23.918;2022-12-07T14:44:22;11.52;;;5.40;;
40591;SDS011;26301;42.832;23.918;2022-12-07T14:46:48;11.57;;;5.47;;
40591;SDS011;26301;42.832;23.918;2022-12-07T14:49:15;17.55;;;5.75;;
40591;SDS011;26301;42.832;23.918;2022-12-07T14:51:41;12.50;;;5.70;;
40591;SDS011;26301;42.832;23.918;2022-12-07T14:54:13;15.00;;;6.53;;
40591;SDS011;26301;42.832;23.918;2022-12-07T14:56:43;13.00;;;6.85;;
40591;SDS011;26301;42.832;23.918;2022-12-07T14:59:11;9.10;;;5.28;;
40591;SDS011;26301;42.832;23.918;2022-12-07T15:01:37;14.25;;;8.35;;
40591;SDS011;26301;42.832;23.918;2022-12-07T15:04:03;14.85;;;8.93;;
40591;SDS011;26301;42.832;23.918;2022-12-07T15:06:29;26.08;;;16.85;;
40591;SDS011;26301;42.832;23.918;2022-12-07T15:08:55;30.80;;;17.02;;
40591;SDS011;26301;42.832;23.918;2022-12-07T15:11:20;20.10;;;12.98;;
40591;SDS011;26301;42.832;23.918;2022-12-07T15:13:46;21.15;;;12.15;;
40591;SDS011;26301;42.832;23.918;2022-12-07T15:16:30;35.45;;;19.63;;
40591;SDS011;26301;42.832;23.918;2022-12-07T15:18:56;63.00;;;30.42;;
40591;SDS011;26301;42.832;23.918;2022-12-07T15:21:21;13.65;;;8.77;;
40591;SDS011;26301;42.832;23.918;2022-12-07T15:23:47;55.53;;;29.90;;
40591;SDS011;26301;42.832;23.918;2022-12-07T15:26:13;37.10;;;21.05;;
40591;SDS011;26301;42.832;23.918;2022-12-07T15:28:40;39.03;;;21.95;;
40591;SDS011;26301;42.832;23.918;2022-12-07T15:31:16;17.65;;;9.82;;
40591;SDS011;26301;42.832;23.918;2022-12-07T15:33:42;13.60;;;9.70;;
40591;SDS011;26301;42.832;23.918;2022-12-07T15:36:12;16.63;;;9.65;;
40591;SDS011;26301;42.832;23.918;2022-12-07T15:38:51;13.30;;;9.23;;
40591;SDS011;26301;42.832;23.918;2022-12-07T15:41:17;13.95;;;7.65;;
40591;SDS011;26301;42.832;23.918;2022-12-07T15:43:43;12.63;;;6.00;;
40591;SDS011;26301;42.832;23.918;2022-12-07T15:46:31;11.13;;;6.03;;
40591;SDS011;26301;42.832;23.918;2022-12-07T15:48:58;12.37;;;7.67;;
40591;SDS011;26301;42.832;23.918;2022-12-07T15:51:23;11.47;;;7.67;;
40591;SDS011;26301;42.832;23.918;2022-12-07T15:53:49;12.33;;;9.57;;
40591;SDS011;26301;42.832;23.918;2022-12-07T15:56:15;10.93;;;7.80;;
40591;SDS011;26301;42.832;23.918;2022-12-07T15:58:40;11.57;;;8.25;;
40591;SDS011;26301;42.832;23.918;2022-12-07T16:06:04;13.75;;;8.27;;
40591;SDS011;26301;42.832;23.918;2022-12-07T16:08:30;18.57;;;13.50;;
40591;SDS011;26301;42.832;23.918;2022-12-07T16:10:56;12.00;;;7.97;;
40591;SDS011;26301;42.832;23.918;2022-12-07T16:13:21;18.13;;;9.47;;
40591;SDS011;26301;42.832;23.918;2022-12-07T16:15:47;10.70;;;6.47;;
40591;SDS011;26301;42.832;23.918;2022-12-07T16:18:13;12.37;;;7.97;;
40591;SDS011;26301;42.832;23.918;2022-12-07T16:20:39;11.17;;;6.97;;
40591;SDS011;26301;42.832;23.918;2022-12-07T16:23:05;11.00;;;7.70;;
40591;SDS011;26301;42.832;23.918;2022-12-07T16:25:31;12.37;;;7.40;;
40591;SDS011;26301;42.832;23.918;2022-12-07T16:27:56;11.90;;;7.83;;
40591;SDS011;26301;42.832;23.918;2022-12-07T16:30:22;14.17;;;10.93;;
40591;SDS011;26301;42.832;23.918;2022-12-07T16:32:48;10.17;;;6.63;;
40591;SDS011;26301;42.832;23.918;2022-12-07T16:35:13;10.07;;;6.77;;
40591;SDS011;26301;42.832;23.918;2022-12-07T16:37:41;11.57;;;6.80;;
40591;SDS011;26301;42.832;23.918;2022-12-07T16:40:07;9.97;;;6.97;;
40591;SDS011;26301;42.832;23.918;2022-12-07T16:42:34;18.30;;;7.00;;
40591;SDS011;26301;42.832;23.918;2022-12-07T16:45:00;11.60;;;6.57;;
40591;SDS011;26301;42.832;23.918;2022-12-07T16:47:26;14.47;;;6.50;;
40591;SDS011;26301;42.832;23.918;2022-12-07T16:49:52;13.17;;;7.63;;